sensor_id;sensor_type;location;lat;lon;timestamp;temperature;humidity
16523;DHT22;19889;52.546;13.348;2022-10-31T00:02:19;16.40;99.90
16523;DHT22;19889;52.546;13.348;2022-10-31T00:04:45;16.40;99.90
16523;DHT22;19889;52.546;13.348;2022-10-31T00:07:13;16.40;99.90
16523;DHT22;19889;52.546;13.348;2022-10-31T00:09:40;16.30;99.90
16523;DHT22;19889;52.546;13.348;2022-10-31T00:12:07;16.30;99.90
16523;DHT22;19889;52.546;13.348;2022-10-31T00:14:34;16.30;99.90
16523;DHT22;19889;52.546;13.348;2022-10-31T00:17:00;16.30;99.90
16523;DHT22;19889;52.546;13.348;2022-10-31T00:19:27;16.30;99.90
16523;DHT22;19889;52.546;13.348;2022-10-31T00:21:54;16.20;99.90
16523;DHT22;19889;52.546;13.348;2022-10-31T00:24:22;16.20;99.90
16523;DHT22;19889;52.546;13.348;2022-10-31T00:26:49;16.20;99.90
16523;DHT22;19889;52.546;13.348;2022-10-31T00:29:15;16.20;99.90
16523;DHT22;19889;52.546;13.348;2022-10-31T00:31:42;16.20;99.90
16523;DHT22;19889;52.546;13.348;2022-10-31T00:34:09;16.20;99.90
16523;DHT22;19889;52.546;13.348;2022-10-31T00:36:36;16.20;99.90
16523;DHT22;19889;52.546;13.348;2022-10-31T00:39:03;16.20;99.90
16523;DHT22;19889;52.546;13.348;2022-10-31T00:41:31;16.20;99.90
16523;DHT22;19889;52.546;13.348;2022-10-31T00:43:57;16.10;99.90
16523;DHT22;19889;52.546;13.348;2022-10-31T00:46:24;16.10;99.90
16523;DHT22;19889;52.546;13.348;2022-10-31T00:48:51;16.10;99.90
16523;DHT22;19889;52.546;13.348;2022-10-31T00:51:18;16.10;99.90
16523;DHT22;19889;52.546;13.348;2022-10-31T00:53:44;16.10;99.90
16523;DHT22;19889;52.546;13.348;2022-10-31T00:56:11;16.10;99.90
16523;DHT22;19889;52.546;13.348;2022-10-31T00:58:40;16.00;99.90
16523;DHT22;19889;52.546;13.348;2022-10-31T01:01:08;16.00;99.90
16523;DHT22;19889;52.546;13.348;2022-10-31T01:03:35;16.00;99.90
16523;DHT22;19889;52.546;13.348;2022-10-31T01:06:06;16.00;99.90
16523;DHT22;19889;52.546;13.348;2022-10-31T01:08:33;16.00;99.90
16523;DHT22;19889;52.546;13.348;2022-10-31T01:11:02;15.90;99.90
16523;DHT22;19889;52.546;13.348;2022-10-31T01:13:32;15.90;99.90
16523;DHT22;19889;52.546;13.348;2022-10-31T01:16:03;15.90;99.90
16523;DHT22;19889;52.546;13.348;2022-10-31T01:18:32;15.90;99.90
16523;DHT22;19889;52.546;13.348;2022-10-31T01:21:02;15.80;99.90
16523;DHT22;19889;52.546;13.348;2022-10-31T01:23:29;15.90;99.90
16523;DHT22;19889;52.546;13.348;2022-10-31T01:26:01;15.80;99.90
16523;DHT22;19889;52.546;13.348;2022-10-31T01:28:28;15.80;99.90
16523;DHT22;19889;52.546;13.348;2022-10-31T01:30:54;15.80;99.90
16523;DHT22;19889;52.546;13.348;2022-10-31T01:33:22;15.80;99.90
16523;DHT22;19889;52.546;13.348;2022-10-31T01:35:49;15.80;99.90
16523;DHT22;19889;52.546;13.348;2022-10-31T01:38:16;15.80;99.90
16523;DHT22;19889;52.546;13.348;2022-10-31T01:40:43;15.80;99.90
16523;DHT22;19889;52.546;13.348;2022-10-31T01:43:14;15.80;99.90
16523;DHT22;19889;52.546;13.348;2022-10-31T01:45:42;15.80;99.90
16523;DHT22;19889;52.546;13.348;2022-10-31T01:48:14;15.80;99.90
16523;DHT22;19889;52.546;13.348;2022-10-31T01:50:46;15.80;99.90
16523;DHT22;19889;52.546;13.348;2022-10-31T01:53:15;15.80;99.90
16523;DHT22;19889;52.546;13.348;2022-10-31T01:55:44;15.80;99.90
16523;DHT22;19889;52.546;13.348;2022-10-31T01:58:19;15.80;99.90
16523;DHT22;19889;52.546;13.348;2022-10-31T02:00:48;15.80;99.90
16523;DHT22;19889;52.546;13.348;2022-10-31T02:03:16;15.80;99.90
16523;DHT22;19889;52.546;13.348;2022-10-31T02:05:45;15.80;99.90
16523;DHT22;19889;52.546;13.348;2022-10-31T02:08:16;15.80;99.90
16523;DHT22;19889;52.546;13.348;2022-10-31T02:10:48;15.70;99.90
16523;DHT22;19889;52.546;13.348;2022-10-31T02:13:15;15.70;99.90
16523;DHT22;19889;52.546;13.348;2022-10-31T02:15:48;15.70;99.90
16523;DHT22;19889;52.546;13.348;2022-10-31T02:18:16;15.70;99.90
16523;DHT22;19889;52.546;13.348;2022-10-31T02:20:55;15.70;99.90
16523;DHT22;19889;52.546;13.348;2022-10-31T02:23:54;15.70;99.90
16523;DHT22;19889;52.546;13.348;2022-10-31T02:26:42;15.70;99.90
16523;DHT22;19889;52.546;13.348;2022-10-31T02:29:30;15.70;99.90
16523;DHT22;19889;52.546;13.348;2022-10-31T02:32:09;15.70;99.90
16523;DHT22;19889;52.546;13.348;2022-10-31T02:34:45;15.70;99.90
16523;DHT22;19889;52.546;13.348;2022-10-31T02:37:21;15.70;99.90
16523;DHT22;19889;52.546;13.348;2022-10-31T02:39:56;15.70;99.90
16523;DHT22;19889;52.546;13.348;2022-10-31T02:42:48;15.60;99.90
16523;DHT22;19889;52.546;13.348;2022-10-31T02:45:22;15.60;99.90
16523;DHT22;19889;52.546;13.348;2022-10-31T02:47:55;15.60;99.90
16523;DHT22;19889;52.546;13.348;2022-10-31T02:50:28;15.60;99.90
16523;DHT22;19889;52.546;13.348;2022-10-31T02:52:56;15.60;99.90
16523;DHT22;19889;52.546;13.348;2022-10-31T02:55:51;15.60;99.90
16523;DHT22;19889;52.546;13.348;2022-10-31T02:58:22;15.50;99.90
16523;DHT22;19889;52.546;13.348;2022-10-31T03:03:58;15.50;99.90
16523;DHT22;19889;52.546;13.348;2022-10-31T03:06:33;15.40;99.90
16523;DHT22;19889;52.546;13.348;2022-10-31T03:09:07;15.40;99.90
16523;DHT22;19889;52.546;13.348;2022-10-31T03:11:42;15.30;99.90
16523;DHT22;19889;52.546;13.348;2022-10-31T03:14:12;15.30;99.90
16523;DHT22;19889;52.546;13.348;2022-10-31T03:16:47;15.30;99.90
16523;DHT22;19889;52.546;13.348;2022-10-31T03:19:17;15.30;99.90
16523;DHT22;19889;52.546;13.348;2022-10-31T03:21:48;15.30;99.90
16523;DHT22;19889;52.546;13.348;2022-10-31T03:24:17;15.30;99.90
16523;DHT22;19889;52.546;13.348;2022-10-31T03:26:47;15.30;99.90
16523;DHT22;19889;52.546;13.348;2022-10-31T03:29:18;15.30;99.90
16523;DHT22;19889;52.546;13.348;2022-10-31T03:31:50;15.30;99.90
16523;DHT22;19889;52.546;13.348;2022-10-31T03:34:23;15.20;99.90
16523;DHT22;19889;52.546;13.348;2022-10-31T03:36:52;15.30;99.90
16523;DHT22;19889;52.546;13.348;2022-10-31T03:39:21;15.30;99.90
16523;DHT22;19889;52.546;13.348;2022-10-31T03:41:53;15.20;99.90
16523;DHT22;19889;52.546;13.348;2022-10-31T03:44:22;15.20;99.90
16523;DHT22;19889;52.546;13.348;2022-10-31T03:46:57;15.20;99.90
16523;DHT22;19889;52.546;13.348;2022-10-31T03:49:26;15.30;99.90
16523;DHT22;19889;52.546;13.348;2022-10-31T03:51:57;15.20;99.90
16523;DHT22;19889;52.546;13.348;2022-10-31T03:54:29;15.20;99.90
16523;DHT22;19889;52.546;13.348;2022-10-31T03:57:05;15.20;99.90
16523;DHT22;19889;52.546;13.348;2022-10-31T03:59:36;15.20;99.90
16523;DHT22;19889;52.546;13.348;2022-10-31T04:02:06;15.20;99.90
16523;DHT22;19889;52.546;13.348;2022-10-31T04:04:36;15.20;99.90
16523;DHT22;19889;52.546;13.348;2022-10-31T04:07:05;15.20;99.90
16523;DHT22;19889;52.546;13.348;2022-10-31T04:09:37;15.20;99.90
16523;DHT22;19889;52.546;13.348;2022-10-31T04:12:06;15.20;99.90
16523;DHT22;19889;52.546;13.348;2022-10-31T04:14:55;15.10;99.90
16523;DHT22;19889;52.546;13.348;2022-10-31T04:17:23;15.10;99.90
16523;DHT22;19889;52.546;13.348;2022-10-31T04:19:55;15.10;99.90
16523;DHT22;19889;52.546;13.348;2022-10-31T04:22:25;15.10;99.90
16523;DHT22;19889;52.546;13.348;2022-10-31T04:24:52;15.20;99.90
16523;DHT22;19889;52.546;13.348;2022-10-31T04:27:18;15.10;99.90
16523;DHT22;19889;52.546;13.348;2022-10-31T04:29:45;15.10;99.90
16523;DHT22;19889;52.546;13.348;2022-10-31T04:32:12;15.10;99.90
16523;DHT22;19889;52.546;13.348;2022-10-31T04:34:39;15.10;99.90
16523;DHT22;19889;52.546;13.348;2022-10-31T04:37:07;15.10;99.90
16523;DHT22;19889;52.546;13.348;2022-10-31T04:39:34;15.10;99.90
16523;DHT22;19889;52.546;13.348;2022-10-31T04:42:20;15.10;99.90
16523;DHT22;19889;52.546;13.348;2022-10-31T04:44:47;15.10;99.90
16523;DHT22;19889;52.546;13.348;2022-10-31T04:47:14;15.10;99.90
16523;DHT22;19889;52.546;13.348;2022-10-31T04:49:42;15.10;99.90
16523;DHT22;19889;52.546;13.348;2022-10-31T04:52:11;15.10;99.90
16523;DHT22;19889;52.546;13.348;2022-10-31T04:54:39;15.10;99.90
16523;DHT22;19889;52.546;13.348;2022-10-31T04:57:26;15.10;99.90
16523;DHT22;19889;52.546;13.348;2022-10-31T04:59:54;15.10;99.90
16523;DHT22;19889;52.546;13.348;2022-10-31T05:02:22;15.10;99.90
16523;DHT22;19889;52.546;13.348;2022-10-31T05:04:55;15.10;99.90
16523;DHT22;19889;52.546;13.348;2022-10-31T05:07:23;15.10;99.90
16523;DHT22;19889;52.546;13.348;2022-10-31T05:09:50;15.20;99.90
16523;DHT22;19889;52.546;13.348;2022-10-31T05:12:18;15.10;99.90
16523;DHT22;19889;52.546;13.348;2022-10-31T05:15:11;15.20;99.90
16523;DHT22;19889;52.546;13.348;2022-10-31T05:18:01;15.10;99.90
16523;DHT22;19889;52.546;13.348;2022-10-31T05:20:30;15.10;99.90
16523;DHT22;19889;52.546;13.348;2022-10-31T05:23:16;15.10;99.90
16523;DHT22;19889;52.546;13.348;2022-10-31T05:25:43;15.10;99.90
16523;DHT22;19889;52.546;13.348;2022-10-31T05:28:11;15.10;99.90
16523;DHT22;19889;52.546;13.348;2022-10-31T05:30:38;15.10;99.90
16523;DHT22;19889;52.546;13.348;2022-10-31T05:33:09;15.10;99.90
16523;DHT22;19889;52.546;13.348;2022-10-31T05:35:54;15.10;99.90
16523;DHT22;19889;52.546;13.348;2022-10-31T05:38:32;15.10;99.90
16523;DHT22;19889;52.546;13.348;2022-10-31T05:41:08;15.10;99.90
16523;DHT22;19889;52.546;13.348;2022-10-31T05:43:35;15.00;99.90
16523;DHT22;19889;52.546;13.348;2022-10-31T05:46:04;15.00;99.90
16523;DHT22;19889;52.546;13.348;2022-10-31T05:48:57;15.00;99.90
16523;DHT22;19889;52.546;13.348;2022-10-31T05:51:44;15.10;99.90
16523;DHT22;19889;52.546;13.348;2022-10-31T05:54:12;15.00;99.90
16523;DHT22;19889;52.546;13.348;2022-10-31T05:56:39;15.00;99.90
16523;DHT22;19889;52.546;13.348;2022-10-31T05:59:06;15.00;99.90
16523;DHT22;19889;52.546;13.348;2022-10-31T06:01:33;15.00;99.90
16523;DHT22;19889;52.546;13.348;2022-10-31T06:04:04;15.00;99.90
16523;DHT22;19889;52.546;13.348;2022-10-31T06:06:32;15.00;99.90
16523;DHT22;19889;52.546;13.348;2022-10-31T06:08:59;15.00;99.90
16523;DHT22;19889;52.546;13.348;2022-10-31T06:11:28;15.00;99.90
16523;DHT22;19889;52.546;13.348;2022-10-31T06:14:01;15.00;99.90
16523;DHT22;19889;52.546;13.348;2022-10-31T06:16:49;15.00;99.90
16523;DHT22;19889;52.546;13.348;2022-10-31T06:19:42;15.00;99.90
16523;DHT22;19889;52.546;13.348;2022-10-31T06:22:11;15.00;99.90
16523;DHT22;19889;52.546;13.348;2022-10-31T06:24:38;15.00;99.90
16523;DHT22;19889;52.546;13.348;2022-10-31T06:27:32;15.00;99.90
16523;DHT22;19889;52.546;13.348;2022-10-31T06:30:06;15.30;99.90
16523;DHT22;19889;52.546;13.348;2022-10-31T06:32:35;15.00;99.90
16523;DHT22;19889;52.546;13.348;2022-10-31T06:35:03;15.00;99.90
16523;DHT22;19889;52.546;13.348;2022-10-31T06:37:32;15.00;99.90
16523;DHT22;19889;52.546;13.348;2022-10-31T06:40:07;15.00;99.90
16523;DHT22;19889;52.546;13.348;2022-10-31T06:42:58;15.00;99.90
16523;DHT22;19889;52.546;13.348;2022-10-31T06:45:25;15.00;99.90
16523;DHT22;19889;52.546;13.348;2022-10-31T06:48:10;15.00;99.90
16523;DHT22;19889;52.546;13.348;2022-10-31T06:50:43;15.00;99.90
16523;DHT22;19889;52.546;13.348;2022-10-31T06:53:12;15.00;99.90
16523;DHT22;19889;52.546;13.348;2022-10-31T06:55:40;15.00;99.90
16523;DHT22;19889;52.546;13.348;2022-10-31T06:58:09;15.00;99.90
16523;DHT22;19889;52.546;13.348;2022-10-31T07:00:39;15.00;99.90
16523;DHT22;19889;52.546;13.348;2022-10-31T07:03:09;15.00;99.90
16523;DHT22;19889;52.546;13.348;2022-10-31T07:05:36;15.00;99.90
16523;DHT22;19889;52.546;13.348;2022-10-31T07:08:05;15.00;99.90
16523;DHT22;19889;52.546;13.348;2022-10-31T07:10:35;15.10;99.90
16523;DHT22;19889;52.546;13.348;2022-10-31T07:13:04;15.10;99.90
16523;DHT22;19889;52.546;13.348;2022-10-31T07:15:36;15.10;99.90
16523;DHT22;19889;52.546;13.348;2022-10-31T07:18:06;15.10;99.90
16523;DHT22;19889;52.546;13.348;2022-10-31T07:20:34;15.20;99.90
16523;DHT22;19889;52.546;13.348;2022-10-31T07:23:01;15.20;99.90
16523;DHT22;19889;52.546;13.348;2022-10-31T07:25:29;15.20;99.90
16523;DHT22;19889;52.546;13.348;2022-10-31T07:28:07;15.20;99.90
16523;DHT22;19889;52.546;13.348;2022-10-31T07:30:35;15.30;99.90
16523;DHT22;19889;52.546;13.348;2022-10-31T07:33:03;15.30;99.90
16523;DHT22;19889;52.546;13.348;2022-10-31T07:35:54;15.30;99.90
16523;DHT22;19889;52.546;13.348;2022-10-31T07:38:23;15.40;99.90
16523;DHT22;19889;52.546;13.348;2022-10-31T07:40:51;15.40;99.90
16523;DHT22;19889;52.546;13.348;2022-10-31T07:43:18;15.50;99.90
16523;DHT22;19889;52.546;13.348;2022-10-31T07:46:18;15.50;99.90
16523;DHT22;19889;52.546;13.348;2022-10-31T07:49:04;15.60;99.90
16523;DHT22;19889;52.546;13.348;2022-10-31T07:51:49;15.60;99.90
16523;DHT22;19889;52.546;13.348;2022-10-31T07:54:36;15.60;99.90
16523;DHT22;19889;52.546;13.348;2022-10-31T07:57:03;15.60;99.90
16523;DHT22;19889;52.546;13.348;2022-10-31T07:59:30;15.60;99.90
16523;DHT22;19889;52.546;13.348;2022-10-31T08:01:59;15.60;99.90
16523;DHT22;19889;52.546;13.348;2022-10-31T08:04:49;15.60;99.90
16523;DHT22;19889;52.546;13.348;2022-10-31T08:07:36;15.60;99.90
16523;DHT22;19889;52.546;13.348;2022-10-31T08:10:06;15.60;99.90
16523;DHT22;19889;52.546;13.348;2022-10-31T08:12:34;15.60;99.90
16523;DHT22;19889;52.546;13.348;2022-10-31T08:15:02;15.60;99.90
16523;DHT22;19889;52.546;13.348;2022-10-31T08:17:35;15.60;99.90
16523;DHT22;19889;52.546;13.348;2022-10-31T08:20:02;15.60;99.90
16523;DHT22;19889;52.546;13.348;2022-10-31T08:22:35;15.60;99.90
16523;DHT22;19889;52.546;13.348;2022-10-31T08:25:02;15.60;99.90
16523;DHT22;19889;52.546;13.348;2022-10-31T08:27:28;15.60;99.90
16523;DHT22;19889;52.546;13.348;2022-10-31T08:29:58;15.60;99.90
16523;DHT22;19889;52.546;13.348;2022-10-31T08:32:25;15.70;99.90
16523;DHT22;19889;52.546;13.348;2022-10-31T08:35:19;15.70;99.90
16523;DHT22;19889;52.546;13.348;2022-10-31T08:38:24;15.60;99.90
16523;DHT22;19889;52.546;13.348;2022-10-31T08:40:52;15.60;99.90
16523;DHT22;19889;52.546;13.348;2022-10-31T08:43:19;15.60;99.90
16523;DHT22;19889;52.546;13.348;2022-10-31T08:45:48;15.60;99.90
16523;DHT22;19889;52.546;13.348;2022-10-31T08:48:22;15.60;99.90
16523;DHT22;19889;52.546;13.348;2022-10-31T08:50:50;15.60;99.90
16523;DHT22;19889;52.546;13.348;2022-10-31T08:53:19;15.60;99.90
16523;DHT22;19889;52.546;13.348;2022-10-31T08:55:54;15.60;99.90
16523;DHT22;19889;52.546;13.348;2022-10-31T08:58:24;15.60;99.90
16523;DHT22;19889;52.546;13.348;2022-10-31T09:00:55;15.60;99.90
16523;DHT22;19889;52.546;13.348;2022-10-31T09:03:24;15.60;99.90
16523;DHT22;19889;52.546;13.348;2022-10-31T09:05:56;15.70;99.90
16523;DHT22;19889;52.546;13.348;2022-10-31T09:08:24;15.70;99.90
16523;DHT22;19889;52.546;13.348;2022-10-31T09:10:52;15.70;99.90
16523;DHT22;19889;52.546;13.348;2022-10-31T09:13:42;15.70;99.90
16523;DHT22;19889;52.546;13.348;2022-10-31T09:16:38;15.70;99.90
16523;DHT22;19889;52.546;13.348;2022-10-31T09:19:08;15.70;99.90
16523;DHT22;19889;52.546;13.348;2022-10-31T09:21:36;15.70;99.90
16523;DHT22;19889;52.546;13.348;2022-10-31T09:24:04;15.80;99.90
16523;DHT22;19889;52.546;13.348;2022-10-31T09:26:33;15.80;99.90
16523;DHT22;19889;52.546;13.348;2022-10-31T09:29:07;15.80;99.90
16523;DHT22;19889;52.546;13.348;2022-10-31T09:31:35;15.80;99.90
16523;DHT22;19889;52.546;13.348;2022-10-31T09:34:05;15.90;99.90
16523;DHT22;19889;52.546;13.348;2022-10-31T09:36:37;15.80;99.90
16523;DHT22;19889;52.546;13.348;2022-10-31T09:39:11;15.80;99.90
16523;DHT22;19889;52.546;13.348;2022-10-31T09:41:52;15.90;99.90
16523;DHT22;19889;52.546;13.348;2022-10-31T09:44:26;15.90;99.90
16523;DHT22;19889;52.546;13.348;2022-10-31T09:47:02;15.90;99.90
16523;DHT22;19889;52.546;13.348;2022-10-31T09:49:41;15.90;99.90
16523;DHT22;19889;52.546;13.348;2022-10-31T09:52:21;15.90;99.90
16523;DHT22;19889;52.546;13.348;2022-10-31T09:54:52;15.90;99.90
16523;DHT22;19889;52.546;13.348;2022-10-31T09:57:25;16.00;99.90
16523;DHT22;19889;52.546;13.348;2022-10-31T09:59:54;16.00;99.90
16523;DHT22;19889;52.546;13.348;2022-10-31T10:02:25;16.00;99.90
16523;DHT22;19889;52.546;13.348;2022-10-31T10:04:56;16.00;99.90
16523;DHT22;19889;52.546;13.348;2022-10-31T10:07:40;16.10;99.90
16523;DHT22;19889;52.546;13.348;2022-10-31T10:10:32;16.00;99.90
16523;DHT22;19889;52.546;13.348;2022-10-31T10:13:51;16.10;99.90
16523;DHT22;19889;52.546;13.348;2022-10-31T10:16:30;16.10;99.90
16523;DHT22;19889;52.546;13.348;2022-10-31T10:19:12;16.20;99.90
16523;DHT22;19889;52.546;13.348;2022-10-31T10:21:47;16.20;99.90
16523;DHT22;19889;52.546;13.348;2022-10-31T10:24:33;16.30;99.90
16523;DHT22;19889;52.546;13.348;2022-10-31T10:27:12;16.30;99.90
16523;DHT22;19889;52.546;13.348;2022-10-31T10:29:46;16.30;99.90
16523;DHT22;19889;52.546;13.348;2022-10-31T10:32:23;16.40;99.90
16523;DHT22;19889;52.546;13.348;2022-10-31T10:34:52;16.40;99.90
16523;DHT22;19889;52.546;13.348;2022-10-31T10:37:27;16.50;99.90
16523;DHT22;19889;52.546;13.348;2022-10-31T10:40:03;16.50;99.90
16523;DHT22;19889;52.546;13.348;2022-10-31T10:42:33;16.50;99.90
16523;DHT22;19889;52.546;13.348;2022-10-31T10:45:19;16.50;99.90
16523;DHT22;19889;52.546;13.348;2022-10-31T10:48:07;16.50;99.90
16523;DHT22;19889;52.546;13.348;2022-10-31T10:50:42;16.60;99.90
16523;DHT22;19889;52.546;13.348;2022-10-31T10:53:22;16.60;99.90
16523;DHT22;19889;52.546;13.348;2022-10-31T10:56:06;16.60;99.90
16523;DHT22;19889;52.546;13.348;2022-10-31T10:58:35;16.60;99.90
16523;DHT22;19889;52.546;13.348;2022-10-31T11:01:10;16.60;99.90
16523;DHT22;19889;52.546;13.348;2022-10-31T11:03:37;16.70;99.90
16523;DHT22;19889;52.546;13.348;2022-10-31T11:06:16;16.70;99.90
16523;DHT22;19889;52.546;13.348;2022-10-31T11:08:46;16.80;99.90
16523;DHT22;19889;52.546;13.348;2022-10-31T11:11:23;16.80;99.90
16523;DHT22;19889;52.546;13.348;2022-10-31T11:13:55;16.80;99.90
16523;DHT22;19889;52.546;13.348;2022-10-31T11:16:33;16.80;99.90
16523;DHT22;19889;52.546;13.348;2022-10-31T11:19:09;16.80;99.90
16523;DHT22;19889;52.546;13.348;2022-10-31T11:21:41;16.80;99.90
16523;DHT22;19889;52.546;13.348;2022-10-31T11:24:15;16.90;99.90
16523;DHT22;19889;52.546;13.348;2022-10-31T11:26:45;16.90;99.90
16523;DHT22;19889;52.546;13.348;2022-10-31T11:29:17;16.90;99.90
16523;DHT22;19889;52.546;13.348;2022-10-31T11:31:47;16.90;99.90
16523;DHT22;19889;52.546;13.348;2022-10-31T11:34:19;17.00;99.90
16523;DHT22;19889;52.546;13.348;2022-10-31T11:36:48;16.90;99.90
16523;DHT22;19889;52.546;13.348;2022-10-31T11:39:18;17.00;99.90
16523;DHT22;19889;52.546;13.348;2022-10-31T11:41:49;17.00;99.90
16523;DHT22;19889;52.546;13.348;2022-10-31T11:44:18;17.00;99.90
16523;DHT22;19889;52.546;13.348;2022-10-31T11:46:48;17.00;99.90
16523;DHT22;19889;52.546;13.348;2022-10-31T11:49:17;17.00;99.90
16523;DHT22;19889;52.546;13.348;2022-10-31T11:51:48;17.00;99.90
16523;DHT22;19889;52.546;13.348;2022-10-31T11:54:20;17.00;99.90
16523;DHT22;19889;52.546;13.348;2022-10-31T11:56:49;17.10;99.90
16523;DHT22;19889;52.546;13.348;2022-10-31T11:59:25;17.10;99.90
16523;DHT22;19889;52.546;13.348;2022-10-31T12:01:53;17.10;99.90
16523;DHT22;19889;52.546;13.348;2022-10-31T12:04:27;17.10;99.90
16523;DHT22;19889;52.546;13.348;2022-10-31T12:06:57;17.10;99.90
16523;DHT22;19889;52.546;13.348;2022-10-31T12:09:27;17.10;99.90
16523;DHT22;19889;52.546;13.348;2022-10-31T12:12:15;17.10;99.90
16523;DHT22;19889;52.546;13.348;2022-10-31T12:14:54;17.20;99.90
16523;DHT22;19889;52.546;13.348;2022-10-31T12:17:28;17.20;99.90
16523;DHT22;19889;52.546;13.348;2022-10-31T12:20:03;17.20;99.90
16523;DHT22;19889;52.546;13.348;2022-10-31T12:22:42;17.20;99.90
16523;DHT22;19889;52.546;13.348;2022-10-31T12:25:23;17.20;99.90
16523;DHT22;19889;52.546;13.348;2022-10-31T12:28:08;17.20;99.90
16523;DHT22;19889;52.546;13.348;2022-10-31T12:30:49;17.20;99.90
16523;DHT22;19889;52.546;13.348;2022-10-31T12:33:28;17.20;99.90
16523;DHT22;19889;52.546;13.348;2022-10-31T12:36:19;17.20;99.90
16523;DHT22;19889;52.546;13.348;2022-10-31T12:41:51;17.20;99.90
16523;DHT22;19889;52.546;13.348;2022-10-31T12:44:35;17.20;99.90
16523;DHT22;19889;52.546;13.348;2022-10-31T12:47:22;17.30;99.90
16523;DHT22;19889;52.546;13.348;2022-10-31T12:49:58;17.30;99.90
16523;DHT22;19889;52.546;13.348;2022-10-31T12:52:46;17.30;99.90
16523;DHT22;19889;52.546;13.348;2022-10-31T12:55:30;17.30;99.90
16523;DHT22;19889;52.546;13.348;2022-10-31T12:58:01;18.60;99.90
16523;DHT22;19889;52.546;13.348;2022-10-31T13:00:32;17.30;99.90
16523;DHT22;19889;52.546;13.348;2022-10-31T13:03:14;17.30;99.90
16523;DHT22;19889;52.546;13.348;2022-10-31T13:05:48;17.30;99.90
16523;DHT22;19889;52.546;13.348;2022-10-31T13:08:17;17.40;99.90
16523;DHT22;19889;52.546;13.348;2022-10-31T13:10:47;17.40;99.90
16523;DHT22;19889;52.546;13.348;2022-10-31T13:13:18;17.40;99.90
16523;DHT22;19889;52.546;13.348;2022-10-31T13:15:51;17.40;99.90
16523;DHT22;19889;52.546;13.348;2022-10-31T13:18:25;17.50;99.90
16523;DHT22;19889;52.546;13.348;2022-10-31T13:20:54;17.50;99.90
16523;DHT22;19889;52.546;13.348;2022-10-31T13:23:27;17.50;99.90
16523;DHT22;19889;52.546;13.348;2022-10-31T13:25:56;17.50;99.90
16523;DHT22;19889;52.546;13.348;2022-10-31T13:28:28;17.50;99.90
16523;DHT22;19889;52.546;13.348;2022-10-31T13:30:59;17.50;99.90
16523;DHT22;19889;52.546;13.348;2022-10-31T13:33:27;17.50;99.90
16523;DHT22;19889;52.546;13.348;2022-10-31T13:36:14;17.50;99.90
16523;DHT22;19889;52.546;13.348;2022-10-31T13:38:48;17.50;99.90
16523;DHT22;19889;52.546;13.348;2022-10-31T13:41:27;17.60;99.90
16523;DHT22;19889;52.546;13.348;2022-10-31T13:44:00;17.60;99.90
16523;DHT22;19889;52.546;13.348;2022-10-31T13:46:37;17.60;99.90
16523;DHT22;19889;52.546;13.348;2022-10-31T13:49:25;17.60;99.90
16523;DHT22;19889;52.546;13.348;2022-10-31T13:51:52;17.60;99.90
16523;DHT22;19889;52.546;13.348;2022-10-31T13:54:23;17.60;99.90
16523;DHT22;19889;52.546;13.348;2022-10-31T13:56:51;17.60;99.90
16523;DHT22;19889;52.546;13.348;2022-10-31T13:59:21;17.50;99.90
16523;DHT22;19889;52.546;13.348;2022-10-31T14:01:53;17.60;99.90
16523;DHT22;19889;52.546;13.348;2022-10-31T14:04:22;17.60;99.90
16523;DHT22;19889;52.546;13.348;2022-10-31T14:06:54;17.50;99.90
16523;DHT22;19889;52.546;13.348;2022-10-31T14:09:28;17.50;99.90
16523;DHT22;19889;52.546;13.348;2022-10-31T14:12:03;17.50;99.90
16523;DHT22;19889;52.546;13.348;2022-10-31T14:14:41;17.50;99.90
16523;DHT22;19889;52.546;13.348;2022-10-31T14:17:17;17.50;99.90
16523;DHT22;19889;52.546;13.348;2022-10-31T14:20:00;17.40;99.90
16523;DHT22;19889;52.546;13.348;2022-10-31T14:22:31;17.40;99.90
16523;DHT22;19889;52.546;13.348;2022-10-31T14:24:58;17.30;99.90
16523;DHT22;19889;52.546;13.348;2022-10-31T14:27:43;17.30;99.90
16523;DHT22;19889;52.546;13.348;2022-10-31T14:30:16;17.30;99.90
16523;DHT22;19889;52.546;13.348;2022-10-31T14:32:50;17.20;99.90
16523;DHT22;19889;52.546;13.348;2022-10-31T14:35:17;17.20;99.90
16523;DHT22;19889;52.546;13.348;2022-10-31T14:38:06;17.20;99.90
16523;DHT22;19889;52.546;13.348;2022-10-31T14:40:42;17.10;99.90
16523;DHT22;19889;52.546;13.348;2022-10-31T14:43:44;17.10;99.90
16523;DHT22;19889;52.546;13.348;2022-10-31T14:46:18;17.00;99.90
16523;DHT22;19889;52.546;13.348;2022-10-31T14:49:04;17.00;99.90
16523;DHT22;19889;52.546;13.348;2022-10-31T14:51:35;17.00;99.90
16523;DHT22;19889;52.546;13.348;2022-10-31T14:54:06;17.00;99.90
16523;DHT22;19889;52.546;13.348;2022-10-31T14:56:35;16.90;99.90
16523;DHT22;19889;52.546;13.348;2022-10-31T14:59:07;16.90;99.90
16523;DHT22;19889;52.546;13.348;2022-10-31T15:01:36;16.90;99.90
16523;DHT22;19889;52.546;13.348;2022-10-31T15:04:11;16.90;99.90
16523;DHT22;19889;52.546;13.348;2022-10-31T15:06:43;16.80;99.90
16523;DHT22;19889;52.546;13.348;2022-10-31T15:09:21;16.80;99.90
16523;DHT22;19889;52.546;13.348;2022-10-31T15:11:48;16.80;99.90
16523;DHT22;19889;52.546;13.348;2022-10-31T15:14:24;16.80;99.90
16523;DHT22;19889;52.546;13.348;2022-10-31T15:16:51;16.80;99.90
16523;DHT22;19889;52.546;13.348;2022-10-31T15:19:22;16.80;99.90
16523;DHT22;19889;52.546;13.348;2022-10-31T15:21:51;16.80;99.90
16523;DHT22;19889;52.546;13.348;2022-10-31T15:24:18;16.70;99.90
16523;DHT22;19889;52.546;13.348;2022-10-31T15:26:48;16.70;99.90
16523;DHT22;19889;52.546;13.348;2022-10-31T15:29:18;16.70;99.90
16523;DHT22;19889;52.546;13.348;2022-10-31T15:31:51;16.60;99.90
16523;DHT22;19889;52.546;13.348;2022-10-31T15:34:25;16.60;99.90
16523;DHT22;19889;52.546;13.348;2022-10-31T15:36:54;16.60;99.90
16523;DHT22;19889;52.546;13.348;2022-10-31T15:39:21;16.60;99.90
16523;DHT22;19889;52.546;13.348;2022-10-31T15:41:50;16.60;99.90
16523;DHT22;19889;52.546;13.348;2022-10-31T15:44:22;16.60;99.90
16523;DHT22;19889;52.546;13.348;2022-10-31T15:46:55;16.60;99.90
16523;DHT22;19889;52.546;13.348;2022-10-31T15:49:33;16.60;99.90
16523;DHT22;19889;52.546;13.348;2022-10-31T15:52:06;16.60;99.90
16523;DHT22;19889;52.546;13.348;2022-10-31T15:54:35;16.60;99.90
16523;DHT22;19889;52.546;13.348;2022-10-31T15:57:02;16.60;99.90
16523;DHT22;19889;52.546;13.348;2022-10-31T15:59:31;16.50;99.90